sensor_id;sensor_type;location;lat;lon;timestamp;pressure;altitude;pressure_sealevel;temperature;humidity
31346;BME280;21711;49.708;18.568;2023-04-08T00:02:03;97363.91;;;4.23;100.00
31346;BME280;21711;49.708;18.568;2023-04-08T00:04:30;97368.09;;;4.12;100.00
31346;BME280;21711;49.708;18.568;2023-04-08T00:06:58;97375.25;;;4.05;100.00
31346;BME280;21711;49.708;18.568;2023-04-08T00:09:25;97364.34;;;3.96;100.00
31346;BME280;21711;49.708;18.568;2023-04-08T00:11:52;97372.63;;;3.93;100.00
31346;BME280;21711;49.708;18.568;2023-04-08T00:14:20;97365.13;;;3.97;100.00
31346;BME280;21711;49.708;18.568;2023-04-08T00:16:47;97364.00;;;4.16;100.00
31346;BME280;21711;49.708;18.568;2023-04-08T00:19:14;97360.69;;;4.21;100.00
31346;BME280;21711;49.708;18.568;2023-04-08T00:21:42;97366.25;;;4.25;100.00
31346;BME280;21711;49.708;18.568;2023-04-08T00:24:09;97362.88;;;4.12;100.00
31346;BME280;21711;49.708;18.568;2023-04-08T00:26:37;97366.84;;;4.15;100.00
31346;BME280;21711;49.708;18.568;2023-04-08T00:29:04;97375.84;;;4.19;100.00
31346;BME280;21711;49.708;18.568;2023-04-08T00:31:32;97368.44;;;4.28;100.00
31346;BME280;21711;49.708;18.568;2023-04-08T00:33:59;97372.09;;;4.27;100.00
31346;BME280;21711;49.708;18.568;2023-04-08T00:36:26;97381.31;;;4.29;100.00
31346;BME280;21711;49.708;18.568;2023-04-08T00:38:54;97372.75;;;4.22;100.00
31346;BME280;21711;49.708;18.568;2023-04-08T00:41:21;97374.22;;;4.30;100.00
31346;BME280;21711;49.708;18.568;2023-04-08T00:43:48;97383.22;;;4.22;100.00
31346;BME280;21711;49.708;18.568;2023-04-08T00:46:16;97379.25;;;4.19;100.00
31346;BME280;21711;49.708;18.568;2023-04-08T00:48:43;97382.88;;;4.30;100.00
31346;BME280;21711;49.708;18.568;2023-04-08T00:51:10;97380.59;;;4.34;100.00
31346;BME280;21711;49.708;18.568;2023-04-08T00:53:38;97382.22;;;4.35;100.00
31346;BME280;21711;49.708;18.568;2023-04-08T00:56:05;97392.31;;;4.43;100.00
31346;BME280;21711;49.708;18.568;2023-04-08T00:58:32;97390.41;;;4.27;100.00
31346;BME280;21711;49.708;18.568;2023-04-08T01:01:07;97385.94;;;4.39;100.00
31346;BME280;21711;49.708;18.568;2023-04-08T01:07:14;97395.31;;;4.23;100.00
31346;BME280;21711;49.708;18.568;2023-04-08T01:09:50;97388.47;;;4.10;100.00
31346;BME280;21711;49.708;18.568;2023-04-08T01:12:28;97384.03;;;4.11;100.00
31346;BME280;21711;49.708;18.568;2023-04-08T01:15:04;97393.94;;;4.32;100.00
31346;BME280;21711;49.708;18.568;2023-04-08T01:17:33;97392.09;;;4.45;100.00
31346;BME280;21711;49.708;18.568;2023-04-08T01:20:04;97395.97;;;4.42;100.00
31346;BME280;21711;49.708;18.568;2023-04-08T01:23:01;97391.53;;;4.55;100.00
31346;BME280;21711;49.708;18.568;2023-04-08T01:25:33;97392.69;;;4.35;100.00
31346;BME280;21711;49.708;18.568;2023-04-08T01:28:14;97389.47;;;4.45;100.00
31346;BME280;21711;49.708;18.568;2023-04-08T01:30:42;97394.16;;;4.31;100.00
31346;BME280;21711;49.708;18.568;2023-04-08T01:33:14;97388.34;;;4.29;100.00
31346;BME280;21711;49.708;18.568;2023-04-08T01:35:43;97390.97;;;4.41;100.00
31346;BME280;21711;49.708;18.568;2023-04-08T01:38:15;97397.44;;;4.38;100.00
31346;BME280;21711;49.708;18.568;2023-04-08T01:40:45;97395.06;;;4.37;100.00
31346;BME280;21711;49.708;18.568;2023-04-08T01:43:16;97394.28;;;4.36;100.00
31346;BME280;21711;49.708;18.568;2023-04-08T01:45:44;97391.56;;;4.31;100.00
31346;BME280;21711;49.708;18.568;2023-04-08T01:48:13;97391.31;;;4.20;100.00
31346;BME280;21711;49.708;18.568;2023-04-08T01:50:43;97393.91;;;4.20;100.00
31346;BME280;21711;49.708;18.568;2023-04-08T01:53:12;97393.91;;;4.20;100.00
31346;BME280;21711;49.708;18.568;2023-04-08T01:55:41;97403.16;;;4.23;100.00
31346;BME280;21711;49.708;18.568;2023-04-08T01:58:18;97400.28;;;4.25;100.00
31346;BME280;21711;49.708;18.568;2023-04-08T02:00:46;97393.59;;;4.29;100.00
31346;BME280;21711;49.708;18.568;2023-04-08T02:03:17;97399.19;;;4.32;100.00
31346;BME280;21711;49.708;18.568;2023-04-08T02:05:47;97406.91;;;4.15;100.00
31346;BME280;21711;49.708;18.568;2023-04-08T02:08:14;97402.47;;;4.28;100.00
31346;BME280;21711;49.708;18.568;2023-04-08T02:10:42;97399.28;;;4.02;100.00
31346;BME280;21711;49.708;18.568;2023-04-08T02:13:09;97397.44;;;3.90;100.00
31346;BME280;21711;49.708;18.568;2023-04-08T02:15:42;97407.00;;;4.20;100.00
31346;BME280;21711;49.708;18.568;2023-04-08T02:18:25;97414.63;;;4.34;100.00
31346;BME280;21711;49.708;18.568;2023-04-08T02:21:11;97415.44;;;4.23;100.00
31346;BME280;21711;49.708;18.568;2023-04-08T02:23:41;97418.63;;;4.13;100.00
31346;BME280;21711;49.708;18.568;2023-04-08T02:26:13;97415.22;;;4.36;100.00
31346;BME280;21711;49.708;18.568;2023-04-08T02:28:41;97418.88;;;4.35;100.00
31346;BME280;21711;49.708;18.568;2023-04-08T02:31:11;97422.06;;;4.37;100.00
31346;BME280;21711;49.708;18.568;2023-04-08T02:33:44;97416.69;;;4.44;100.00
31346;BME280;21711;49.708;18.568;2023-04-08T02:36:13;97413.06;;;4.33;100.00
31346;BME280;21711;49.708;18.568;2023-04-08T02:38:46;97415.66;;;4.33;100.00
31346;BME280;21711;49.708;18.568;2023-04-08T02:41:15;97408.97;;;4.37;100.00
31346;BME280;21711;49.708;18.568;2023-04-08T02:43:43;97417.25;;;4.22;100.00
31346;BME280;21711;49.708;18.568;2023-04-08T02:46:11;97417.94;;;4.29;100.00
31346;BME280;21711;49.708;18.568;2023-04-08T02:48:38;97425.00;;;4.29;100.00
31346;BME280;21711;49.708;18.568;2023-04-08T02:51:05;97414.75;;;4.15;100.00
31346;BME280;21711;49.708;18.568;2023-04-08T02:53:33;97417.63;;;4.26;100.00
31346;BME280;21711;49.708;18.568;2023-04-08T02:56:00;97417.03;;;4.12;100.00
31346;BME280;21711;49.708;18.568;2023-04-08T02:58:27;97425.34;;;4.20;100.00
31346;BME280;21711;49.708;18.568;2023-04-08T03:00:55;97426.72;;;4.35;100.00
31346;BME280;21711;49.708;18.568;2023-04-08T03:03:22;97427.16;;;4.32;100.00
31346;BME280;21711;49.708;18.568;2023-04-08T03:05:58;97429.22;;;4.30;100.00
31346;BME280;21711;49.708;18.568;2023-04-08T03:08:25;97433.88;;;4.28;100.00
31346;BME280;21711;49.708;18.568;2023-04-08T03:10:52;97428.22;;;4.31;100.00
31346;BME280;21711;49.708;18.568;2023-04-08T03:13:20;97424.78;;;4.30;100.00
31346;BME280;21711;49.708;18.568;2023-04-08T03:15:47;97424.88;;;4.47;100.00
31346;BME280;21711;49.708;18.568;2023-04-08T03:18:14;97424.78;;;4.30;100.00
31346;BME280;21711;49.708;18.568;2023-04-08T03:20:41;97438.31;;;4.27;100.00
31346;BME280;21711;49.708;18.568;2023-04-08T03:23:09;97428.19;;;4.19;100.00
31346;BME280;21711;49.708;18.568;2023-04-08T03:25:37;97430.34;;;4.22;100.00
31346;BME280;21711;49.708;18.568;2023-04-08T03:28:04;97435.94;;;4.14;100.00
31346;BME280;21711;49.708;18.568;2023-04-08T03:30:32;97436.84;;;4.19;100.00
31346;BME280;21711;49.708;18.568;2023-04-08T03:32:59;97442.41;;;4.11;100.00
31346;BME280;21711;49.708;18.568;2023-04-08T03:35:26;97444.78;;;4.01;100.00
31346;BME280;21711;49.708;18.568;2023-04-08T03:37:54;97437.16;;;3.99;100.00
31346;BME280;21711;49.708;18.568;2023-04-08T03:40:21;97451.84;;;4.00;100.00
31346;BME280;21711;49.708;18.568;2023-04-08T03:42:48;97452.75;;;4.18;100.00
31346;BME280;21711;49.708;18.568;2023-04-08T03:45:16;97450.03;;;4.13;100.00
31346;BME280;21711;49.708;18.568;2023-04-08T03:47:43;97448.19;;;3.89;100.00
31346;BME280;21711;49.708;18.568;2023-04-08T03:50:10;97448.06;;;3.84;100.00
31346;BME280;21711;49.708;18.568;2023-04-08T03:52:38;97457.94;;;3.94;100.00
31346;BME280;21711;49.708;18.568;2023-04-08T03:55:05;97464.41;;;3.79;100.00
31346;BME280;21711;49.708;18.568;2023-04-08T03:57:33;97461.72;;;3.98;100.00
31346;BME280;21711;49.708;18.568;2023-04-08T04:00:00;97461.91;;;3.85;100.00
31346;BME280;21711;49.708;18.568;2023-04-08T04:02:38;97465.72;;;4.01;100.00
31346;BME280;21711;49.708;18.568;2023-04-08T04:05:06;97470.75;;;4.14;100.00
31346;BME280;21711;49.708;18.568;2023-04-08T04:07:33;97468.72;;;4.28;100.00
31346;BME280;21711;49.708;18.568;2023-04-08T04:10:00;97472.81;;;4.24;100.00
31346;BME280;21711;49.708;18.568;2023-04-08T04:12:28;97476.47;;;4.23;100.00
31346;BME280;21711;49.708;18.568;2023-04-08T04:14:55;97482.59;;;4.29;100.00
31346;BME280;21711;49.708;18.568;2023-04-08T04:17:22;97479.41;;;4.27;100.00
31346;BME280;21711;49.708;18.568;2023-04-08T04:19:49;97486.47;;;4.26;100.00
31346;BME280;21711;49.708;18.568;2023-04-08T04:22:17;97483.97;;;4.43;100.00
31346;BME280;21711;49.708;18.568;2023-04-08T04:24:48;97489.69;;;4.28;100.00
31346;BME280;21711;49.708;18.568;2023-04-08T04:27:16;97490.59;;;4.46;100.00
31346;BME280;21711;49.708;18.568;2023-04-08T04:29:44;97486.69;;;4.37;100.00
31346;BME280;21711;49.708;18.568;2023-04-08T04:32:11;97492.41;;;4.45;100.00
31346;BME280;21711;49.708;18.568;2023-04-08T04:34:39;97490.25;;;4.54;100.00
31346;BME280;21711;49.708;18.568;2023-04-08T04:37:06;97493.56;;;4.50;100.00
31346;BME280;21711;49.708;18.568;2023-04-08T04:39:33;97500.03;;;4.35;100.00
31346;BME280;21711;49.708;18.568;2023-04-08T04:42:00;97495.94;;;4.39;100.00
31346;BME280;21711;49.708;18.568;2023-04-08T04:44:29;97509.28;;;4.50;100.00
31346;BME280;21711;49.708;18.568;2023-04-08T04:46:57;97508.69;;;4.47;100.00
31346;BME280;21711;49.708;18.568;2023-04-08T04:49:24;97510.53;;;4.47;100.00
31346;BME280;21711;49.708;18.568;2023-04-08T04:51:51;97509.03;;;4.39;100.00
31346;BME280;21711;49.708;18.568;2023-04-08T04:54:19;97514.94;;;4.34;100.00
31346;BME280;21711;49.708;18.568;2023-04-08T04:56:46;97506.41;;;4.51;100.00
31346;BME280;21711;49.708;18.568;2023-04-08T04:59:13;97511.78;;;4.32;100.00
31346;BME280;21711;49.708;18.568;2023-04-08T05:01:41;97512.66;;;4.38;100.00
31346;BME280;21711;49.708;18.568;2023-04-08T05:04:08;97511.09;;;4.49;100.00
31346;BME280;21711;49.708;18.568;2023-04-08T05:06:35;97514.13;;;4.34;100.00
31346;BME280;21711;49.708;18.568;2023-04-08T05:09:03;97517.91;;;4.38;100.00
31346;BME280;21711;49.708;18.568;2023-04-08T05:11:30;97521.91;;;4.65;100.00
31346;BME280;21711;49.708;18.568;2023-04-08T05:13:57;97524.75;;;4.63;100.00
31346;BME280;21711;49.708;18.568;2023-04-08T05:16:25;97522.81;;;4.46;100.00
31346;BME280;21711;49.708;18.568;2023-04-08T05:18:53;97523.63;;;4.47;100.00
31346;BME280;21711;49.708;18.568;2023-04-08T05:21:20;97534.13;;;4.59;100.00
31346;BME280;21711;49.708;18.568;2023-04-08T05:23:47;97533.19;;;4.65;100.00
31346;BME280;21711;49.708;18.568;2023-04-08T05:26:17;97534.78;;;4.66;100.00
31346;BME280;21711;49.708;18.568;2023-04-08T05:28:49;97534.25;;;4.76;100.00
31346;BME280;21711;49.708;18.568;2023-04-08T05:31:20;97539.38;;;4.83;100.00
31346;BME280;21711;49.708;18.568;2023-04-08T05:33:47;97544.94;;;4.86;100.00
31346;BME280;21711;49.708;18.568;2023-04-08T05:36:14;97544.13;;;4.98;100.00
31346;BME280;21711;49.708;18.568;2023-04-08T05:38:42;97545.28;;;5.02;100.00
31346;BME280;21711;49.708;18.568;2023-04-08T05:41:10;97554.25;;;5.18;100.00
31346;BME280;21711;49.708;18.568;2023-04-08T05:43:38;97559.16;;;5.26;100.00
31346;BME280;21711;49.708;18.568;2023-04-08T05:46:09;97554.50;;;4.93;100.00
31346;BME280;21711;49.708;18.568;2023-04-08T05:48:37;97557.94;;;5.05;100.00
31346;BME280;21711;49.708;18.568;2023-04-08T05:51:04;97561.69;;;5.09;100.00
31346;BME280;21711;49.708;18.568;2023-04-08T05:53:31;97556.56;;;5.03;100.00
31346;BME280;21711;49.708;18.568;2023-04-08T05:55:59;97557.81;;;5.00;100.00
31346;BME280;21711;49.708;18.568;2023-04-08T05:58:26;97560.41;;;5.24;100.00
31346;BME280;21711;49.708;18.568;2023-04-08T06:00:53;97554.84;;;5.32;100.00
31346;BME280;21711;49.708;18.568;2023-04-08T06:03:21;97560.94;;;5.38;100.00
31346;BME280;21711;49.708;18.568;2023-04-08T06:05:49;97555.38;;;5.34;100.00
31346;BME280;21711;49.708;18.568;2023-04-08T06:08:16;97567.25;;;5.25;100.00
31346;BME280;21711;49.708;18.568;2023-04-08T06:10:50;97570.66;;;5.37;100.00
31346;BME280;21711;49.708;18.568;2023-04-08T06:13:18;97569.53;;;5.21;100.00
31346;BME280;21711;49.708;18.568;2023-04-08T06:15:47;97574.44;;;5.18;100.00
31346;BME280;21711;49.708;18.568;2023-04-08T06:18:17;97580.59;;;5.23;100.00
31346;BME280;21711;49.708;18.568;2023-04-08T06:20:44;97589.00;;;5.49;100.00
31346;BME280;21711;49.708;18.568;2023-04-08T06:23:12;97592.75;;;5.42;100.00
31346;BME280;21711;49.708;18.568;2023-04-08T06:25:40;97593.06;;;5.69;100.00
31346;BME280;21711;49.708;18.568;2023-04-08T06:28:07;97592.31;;;5.86;100.00
31346;BME280;21711;49.708;18.568;2023-04-08T06:30:35;97588.94;;;6.14;100.00
31346;BME280;21711;49.708;18.568;2023-04-08T06:33:02;97586.25;;;6.26;100.00
31346;BME280;21711;49.708;18.568;2023-04-08T06:35:30;97596.84;;;6.31;100.00
31346;BME280;21711;49.708;18.568;2023-04-08T06:37:58;97601.22;;;6.26;100.00
31346;BME280;21711;49.708;18.568;2023-04-08T06:40:25;97597.09;;;6.47;100.00
31346;BME280;21711;49.708;18.568;2023-04-08T06:42:53;97599.34;;;6.55;100.00
31346;BME280;21711;49.708;18.568;2023-04-08T06:45:32;97605.16;;;6.75;100.00
31346;BME280;21711;49.708;18.568;2023-04-08T06:47:59;97604.47;;;6.16;100.00
31346;BME280;21711;49.708;18.568;2023-04-08T06:50:27;97606.44;;;6.09;100.00
31346;BME280;21711;49.708;18.568;2023-04-08T06:52:54;97603.81;;;5.97;100.00
31346;BME280;21711;49.708;18.568;2023-04-08T06:55:21;97606.97;;;5.70;100.00
31346;BME280;21711;49.708;18.568;2023-04-08T06:57:49;97612.72;;;5.96;100.00
31346;BME280;21711;49.708;18.568;2023-04-08T07:00:16;97619.69;;;5.90;100.00
31346;BME280;21711;49.708;18.568;2023-04-08T07:02:44;97628.00;;;6.40;100.00
31346;BME280;21711;49.708;18.568;2023-04-08T07:05:11;97628.13;;;6.79;100.00
31346;BME280;21711;49.708;18.568;2023-04-08T07:07:39;97637.31;;;6.48;100.00
31346;BME280;21711;49.708;18.568;2023-04-08T07:10:06;97637.53;;;6.29;100.00
31346;BME280;21711;49.708;18.568;2023-04-08T07:12:37;97639.41;;;6.63;100.00
31346;BME280;21711;49.708;18.568;2023-04-08T07:15:04;97634.50;;;7.01;100.00
31346;BME280;21711;49.708;18.568;2023-04-08T07:17:32;97646.16;;;7.44;100.00
31346;BME280;21711;49.708;18.568;2023-04-08T07:20:00;97650.66;;;7.66;100.00
31346;BME280;21711;49.708;18.568;2023-04-08T07:22:27;97651.84;;;7.98;100.00
31346;BME280;21711;49.708;18.568;2023-04-08T07:24:55;97661.25;;;8.16;100.00
31346;BME280;21711;49.708;18.568;2023-04-08T07:27:22;97662.88;;;8.45;100.00
31346;BME280;21711;49.708;18.568;2023-04-08T07:29:52;97657.03;;;8.42;100.00
31346;BME280;21711;49.708;18.568;2023-04-08T07:32:22;97660.91;;;8.07;100.00
31346;BME280;21711;49.708;18.568;2023-04-08T07:34:50;97670.38;;;8.08;100.00
31346;BME280;21711;49.708;18.568;2023-04-08T07:37:17;97662.25;;;8.10;100.00
31346;BME280;21711;49.708;18.568;2023-04-08T07:39:45;97674.78;;;8.25;100.00
31346;BME280;21711;49.708;18.568;2023-04-08T07:42:12;97667.00;;;7.90;100.00
31346;BME280;21711;49.708;18.568;2023-04-08T07:44:39;97671.44;;;7.85;100.00
31346;BME280;21711;49.708;18.568;2023-04-08T07:47:08;97675.34;;;8.05;100.00
31346;BME280;21711;49.708;18.568;2023-04-08T07:49:35;97686.81;;;8.15;99.89
31346;BME280;21711;49.708;18.568;2023-04-08T07:52:03;97685.72;;;8.11;100.00
31346;BME280;21711;49.708;18.568;2023-04-08T07:54:31;97687.22;;;8.07;100.00
31346;BME280;21711;49.708;18.568;2023-04-08T07:57:00;97686.06;;;7.98;100.00
31346;BME280;21711;49.708;18.568;2023-04-08T07:59:28;97688.22;;;8.01;100.00
31346;BME280;21711;49.708;18.568;2023-04-08T08:01:56;97703.28;;;8.06;100.00
31346;BME280;21711;49.708;18.568;2023-04-08T08:04:23;97694.44;;;8.17;100.00
31346;BME280;21711;49.708;18.568;2023-04-08T08:06:52;97704.44;;;8.15;100.00
31346;BME280;21711;49.708;18.568;2023-04-08T08:09:19;97698.97;;;7.77;100.00
31346;BME280;21711;49.708;18.568;2023-04-08T08:11:47;97692.84;;;7.32;100.00
31346;BME280;21711;49.708;18.568;2023-04-08T08:14:14;97701.38;;;7.61;100.00
31346;BME280;21711;49.708;18.568;2023-04-08T08:16:41;97698.38;;;7.53;100.00
31346;BME280;21711;49.708;18.568;2023-04-08T08:19:10;97703.06;;;7.68;100.00
31346;BME280;21711;49.708;18.568;2023-04-08T08:21:40;97701.78;;;7.70;100.00
31346;BME280;21711;49.708;18.568;2023-04-08T08:24:07;97703.69;;;7.75;100.00
31346;BME280;21711;49.708;18.568;2023-04-08T08:26:35;97710.63;;;7.64;100.00
31346;BME280;21711;49.708;18.568;2023-04-08T08:29:05;97707.63;;;7.55;100.00
31346;BME280;21711;49.708;18.568;2023-04-08T08:31:35;97714.69;;;7.89;100.00
31346;BME280;21711;49.708;18.568;2023-04-08T08:34:02;97715.06;;;7.58;100.00
31346;BME280;21711;49.708;18.568;2023-04-08T08:36:29;97711.72;;;7.29;100.00
31346;BME280;21711;49.708;18.568;2023-04-08T08:38:59;97724.56;;;7.82;100.00
31346;BME280;21711;49.708;18.568;2023-04-08T08:41:33;97727.38;;;8.37;100.00
31346;BME280;21711;49.708;18.568;2023-04-08T08:44:04;97730.03;;;8.20;100.00
31346;BME280;21711;49.708;18.568;2023-04-08T08:46:32;97730.28;;;8.40;97.14
31346;BME280;21711;49.708;18.568;2023-04-08T08:49:00;97744.09;;;8.70;98.93
31346;BME280;21711;49.708;18.568;2023-04-08T08:51:29;97728.81;;;8.50;97.78
31346;BME280;21711;49.708;18.568;2023-04-08T08:54:02;97737.81;;;8.09;96.24
31346;BME280;21711;49.708;18.568;2023-04-08T08:56:32;97736.28;;;7.91;100.00
31346;BME280;21711;49.708;18.568;2023-04-08T08:59:00;97739.31;;;8.22;99.76
31346;BME280;21711;49.708;18.568;2023-04-08T09:01:31;97744.41;;;7.89;100.00
31346;BME280;21711;49.708;18.568;2023-04-08T09:04:13;97744.66;;;7.88;100.00
31346;BME280;21711;49.708;18.568;2023-04-08T09:06:47;97744.06;;;7.63;100.00
31346;BME280;21711;49.708;18.568;2023-04-08T09:09:19;97741.19;;;8.05;100.00
31346;BME280;21711;49.708;18.568;2023-04-08T09:11:46;97753.53;;;8.44;99.80
31346;BME280;21711;49.708;18.568;2023-04-08T09:14:22;97758.91;;;8.76;98.09
31346;BME280;21711;49.708;18.568;2023-04-08T09:16:51;97757.09;;;8.77;97.40
31346;BME280;21711;49.708;18.568;2023-04-08T09:19:19;97751.38;;;9.18;94.79
31346;BME280;21711;49.708;18.568;2023-04-08T09:22:08;97763.09;;;9.70;91.54
31346;BME280;21711;49.708;18.568;2023-04-08T09:24:36;97762.69;;;10.43;88.76
31346;BME280;21711;49.708;18.568;2023-04-08T09:27:04;97761.25;;;10.88;84.71
31346;BME280;21711;49.708;18.568;2023-04-08T09:29:32;97757.44;;;12.25;78.39
31346;BME280;21711;49.708;18.568;2023-04-08T09:32:05;97768.38;;;15.47;68.32
31346;BME280;21711;49.708;18.568;2023-04-08T09:34:32;97776.34;;;17.79;56.97
31346;BME280;21711;49.708;18.568;2023-04-08T09:37:00;97777.94;;;18.97;54.96
31346;BME280;21711;49.708;18.568;2023-04-08T09:39:28;97787.31;;;18.32;54.02
31346;BME280;21711;49.708;18.568;2023-04-08T09:41:58;97774.56;;;16.97;57.11
31346;BME280;21711;49.708;18.568;2023-04-08T09:44:28;97775.75;;;17.05;51.12
31346;BME280;21711;49.708;18.568;2023-04-08T09:47:09;97781.47;;;16.98;51.61
31346;BME280;21711;49.708;18.568;2023-04-08T09:49:57;97769.75;;;16.20;55.95
31346;BME280;21711;49.708;18.568;2023-04-08T09:53:04;97777.41;;;18.42;49.13
31346;BME280;21711;49.708;18.568;2023-04-08T09:55:35;97776.06;;;20.58;41.26
31346;BME280;21711;49.708;18.568;2023-04-08T09:58:11;97779.19;;;20.00;41.31
31346;BME280;21711;49.708;18.568;2023-04-08T10:00:48;97769.69;;;17.99;45.26
31346;BME280;21711;49.708;18.568;2023-04-08T10:03:47;97767.31;;;16.61;50.51
31346;BME280;21711;49.708;18.568;2023-04-08T10:06:16;97766.34;;;15.72;54.18
31346;BME280;21711;49.708;18.568;2023-04-08T10:08:44;97771.63;;;15.58;56.17
31346;BME280;21711;49.708;18.568;2023-04-08T10:11:14;97767.50;;;14.80;56.31
31346;BME280;21711;49.708;18.568;2023-04-08T10:13:42;97785.53;;;18.27;48.92
31346;BME280;21711;49.708;18.568;2023-04-08T10:16:23;97786.97;;;18.25;46.54
31346;BME280;21711;49.708;18.568;2023-04-08T10:18:53;97788.97;;;19.04;45.68
31346;BME280;21711;49.708;18.568;2023-04-08T10:21:50;97777.03;;;16.56;49.23
31346;BME280;21711;49.708;18.568;2023-04-08T10:24:17;97771.03;;;14.70;53.27
31346;BME280;21711;49.708;18.568;2023-04-08T10:26:50;97767.91;;;13.41;60.51
31346;BME280;21711;49.708;18.568;2023-04-08T10:31:48;97763.88;;;11.87;65.70
31346;BME280;21711;49.708;18.568;2023-04-08T10:34:20;97763.84;;;10.62;71.10
31346;BME280;21711;49.708;18.568;2023-04-08T10:36:48;97761.91;;;10.47;72.42
31346;BME280;21711;49.708;18.568;2023-04-08T10:39:16;97760.94;;;10.64;72.05
31346;BME280;21711;49.708;18.568;2023-04-08T10:41:49;97766.44;;;10.47;72.37
31346;BME280;21711;49.708;18.568;2023-04-08T10:44:24;97765.06;;;10.39;73.98
31346;BME280;21711;49.708;18.568;2023-04-08T10:46:53;97769.53;;;10.33;72.23
31346;BME280;21711;49.708;18.568;2023-04-08T10:49:21;97767.75;;;10.44;70.12
31346;BME280;21711;49.708;18.568;2023-04-08T10:51:48;97765.47;;;10.84;70.88
31346;BME280;21711;49.708;18.568;2023-04-08T10:54:17;97763.41;;;11.64;69.00
31346;BME280;21711;49.708;18.568;2023-04-08T10:56:50;97764.97;;;11.65;66.68
31346;BME280;21711;49.708;18.568;2023-04-08T10:59:31;97764.38;;;12.10;64.57
31346;BME280;21711;49.708;18.568;2023-04-08T11:01:58;97759.53;;;12.33;63.23
31346;BME280;21711;49.708;18.568;2023-04-08T11:04:27;97764.16;;;12.62;63.71
31346;BME280;21711;49.708;18.568;2023-04-08T11:06:55;97770.63;;;12.40;63.78
31346;BME280;21711;49.708;18.568;2023-04-08T11:09:22;97760.50;;;11.35;65.95
31346;BME280;21711;49.708;18.568;2023-04-08T11:11:51;97760.72;;;10.97;66.83
31346;BME280;21711;49.708;18.568;2023-04-08T11:14:18;97760.72;;;10.81;69.32
31346;BME280;21711;49.708;18.568;2023-04-08T11:16:47;97762.72;;;10.48;69.24
31346;BME280;21711;49.708;18.568;2023-04-08T11:19:15;97768.06;;;10.63;71.93
31346;BME280;21711;49.708;18.568;2023-04-08T11:21:43;97764.41;;;10.80;70.15
31346;BME280;21711;49.708;18.568;2023-04-08T11:24:11;97754.91;;;11.26;67.14
31346;BME280;21711;49.708;18.568;2023-04-08T11:26:39;97764.16;;;12.62;65.39
31346;BME280;21711;49.708;18.568;2023-04-08T11:29:11;97776.78;;;13.26;62.02
31346;BME280;21711;49.708;18.568;2023-04-08T11:31:41;97769.28;;;12.98;63.36
31346;BME280;21711;49.708;18.568;2023-04-08T11:34:10;97768.31;;;13.24;62.35
31346;BME280;21711;49.708;18.568;2023-04-08T11:36:39;97767.91;;;13.71;60.38
31346;BME280;21711;49.708;18.568;2023-04-08T11:39:10;97760.53;;;13.92;59.23
31346;BME280;21711;49.708;18.568;2023-04-08T11:41:39;97767.03;;;13.80;59.17
31346;BME280;21711;49.708;18.568;2023-04-08T11:44:07;97766.91;;;13.32;60.22
31346;BME280;21711;49.708;18.568;2023-04-08T11:46:35;97763.28;;;13.57;61.96
31346;BME280;21711;49.708;18.568;2023-04-08T11:49:05;97758.41;;;13.29;57.92
31346;BME280;21711;49.708;18.568;2023-04-08T11:51:55;97753.66;;;12.41;63.17
31346;BME280;21711;49.708;18.568;2023-04-08T11:54:31;97745.88;;;11.68;62.92
31346;BME280;21711;49.708;18.568;2023-04-08T11:56:59;97743.56;;;11.10;66.88
31346;BME280;21711;49.708;18.568;2023-04-08T11:59:29;97740.38;;;11.13;68.28
31346;BME280;21711;49.708;18.568;2023-04-08T12:01:56;97743.22;;;10.70;67.94
31346;BME280;21711;49.708;18.568;2023-04-08T12:04:24;97734.50;;;10.90;66.02
31346;BME280;21711;49.708;18.568;2023-04-08T12:06:51;97727.13;;;10.87;63.77
31346;BME280;21711;49.708;18.568;2023-04-08T12:09:19;97728.19;;;11.01;67.80
31346;BME280;21711;49.708;18.568;2023-04-08T12:11:47;97731.63;;;11.07;63.22
31346;BME280;21711;49.708;18.568;2023-04-08T12:14:14;97730.00;;;10.75;64.31
31346;BME280;21711;49.708;18.568;2023-04-08T12:16:41;97733.69;;;10.69;63.89
31346;BME280;21711;49.708;18.568;2023-04-08T12:19:09;97729.78;;;11.23;65.16
31346;BME280;21711;49.708;18.568;2023-04-08T12:21:36;97731.59;;;10.81;64.24
31346;BME280;21711;49.708;18.568;2023-04-08T12:24:04;97734.75;;;10.73;62.27
31346;BME280;21711;49.708;18.568;2023-04-08T12:26:31;97733.22;;;11.08;65.40
31346;BME280;21711;49.708;18.568;2023-04-08T12:28:59;97728.19;;;11.17;62.75
31346;BME280;21711;49.708;18.568;2023-04-08T12:31:26;97729.75;;;11.65;61.63
31346;BME280;21711;49.708;18.568;2023-04-08T12:33:54;97731.31;;;11.76;59.91
31346;BME280;21711;49.708;18.568;2023-04-08T12:36:21;97727.31;;;11.74;59.89
31346;BME280;21711;49.708;18.568;2023-04-08T12:38:49;97731.88;;;11.57;62.56
31346;BME280;21711;49.708;18.568;2023-04-08T12:41:16;97725.25;;;10.92;61.43
31346;BME280;21711;49.708;18.568;2023-04-08T12:43:44;97727.13;;;10.97;61.79
31346;BME280;21711;49.708;18.568;2023-04-08T12:46:11;97724.97;;;10.68;61.68
31346;BME280;21711;49.708;18.568;2023-04-08T12:48:39;97731.66;;;10.17;64.98
31346;BME280;21711;49.708;18.568;2023-04-08T12:51:06;97726.56;;;10.00;67.66
31346;BME280;21711;49.708;18.568;2023-04-08T12:53:36;97725.22;;;9.92;69.02
31346;BME280;21711;49.708;18.568;2023-04-08T12:56:04;97725.66;;;10.32;68.80
31346;BME280;21711;49.708;18.568;2023-04-08T12:58:31;97732.34;;;10.66;67.47
31346;BME280;21711;49.708;18.568;2023-04-08T13:00:58;97733.94;;;10.62;69.60
31346;BME280;21711;49.708;18.568;2023-04-08T13:03:26;97729.13;;;10.43;67.77
31346;BME280;21711;49.708;18.568;2023-04-08T13:05:56;97727.28;;;10.44;66.12
31346;BME280;21711;49.708;18.568;2023-04-08T13:08:25;97722.84;;;10.60;70.27